This is the latest recevied weather packets stored in our database for station/object DC1NF-6. If no packets are shown the sender has not sent any weather packets the latest 1 day(s).
| Time | Temp. | Humidity | Pressure | Rain* | Wind** | Luminosity | Snow |
|---|---|---|---|---|---|---|---|
| 1778060125 | 17.78° C | 76% | 1006 hPa | 0 mm | - | - | - |
| 1778059521 | 17.78° C | 76% | 1006 hPa | 0 mm | - | - | - |
| 1778058917 | 16.11° C | 83% | 1006 hPa | 0 mm | - | - | - |
| 1778057167 | 16.11° C | 82% | 1006 hPa | 0 mm | - | - | - |
| 1778055960 | 17.22° C | 80% | 1005.7 hPa | 0 mm | - | - | - |
| 1778054752 | 15° C | 88% | 1005.7 hPa | 0 mm | - | - | - |
| 1778054149 | 15° C | 87% | 1005.8 hPa | 0 mm | - | - | - |
| 1778053545 | 15.56° C | 87% | 1005.8 hPa | 0 mm | - | - | - |
| 1778052941 | 15° C | 87% | 1005.7 hPa | 0 mm | - | - | - |
| 1778052338 | 14.44° C | 90% | 1005.7 hPa | 0 mm | - | - | - |
| 1778050527 | 13.33° C | 95% | 1005.7 hPa | 0.25 mm | - | - | - |
| 1778049320 | 13.33° C | 95% | 1005.8 hPa | 0.25 mm | - | - | - |
| 1778048716 | 13.33° C | 95% | 1005.8 hPa | 0.25 mm | - | - | - |
| 1778046362 | 12.78° C | 98% | 1006 hPa | 0 mm | - | - | - |
| 1778045758 | 12.78° C | 98% | 1006.1 hPa | 0 mm | - | - | - |
| 1778045155 | 12.22° C | 99% | 1006.2 hPa | 0 mm | - | - | - |
| 1778044551 | 12.22° C | 99% | 1006.2 hPa | 0 mm | - | - | - |
| 1778043947 | 12.22° C | 99% | 1006.2 hPa | 0 mm | - | - | - |
| 1778043344 | 12.22° C | 99% | 1006.3 hPa | 0 mm | - | - | - |
| 1778042741 | 12.22° C | 99% | 1006.1 hPa | 0 mm | - | - | - |
| 1778042137 | 12.22° C | 99% | 1006 hPa | 0 mm | - | - | - |
| 1778041534 | 12.22° C | 99% | 1006 hPa | 0 mm | - | - | - |
| 1778040931 | 12.22° C | 99% | 1005.9 hPa | 0 mm | - | - | - |
| 1778040327 | 12.22° C | 99% | 1005.9 hPa | 0 mm | - | - | - |
| 1778039723 | 12.22° C | 99% | 1005.8 hPa | 0 mm | - | - | - |
* Rain latest hour (hover to see other rain measurements)
** Current wind speed in m/s (hover to see current wind gust speed)